createdAt,value
2019-01-31T00:02:27.138Z,46.77
2019-01-31T00:05:21.596Z,47.93
2019-01-31T00:08:45.594Z,49.13
2019-01-31T00:12:02.538Z,49.05
2019-01-31T00:14:53.506Z,46.73
2019-01-31T00:17:55.861Z,52.65
2019-01-31T00:20:50.748Z,59.10
2019-01-31T00:24:11.188Z,55.83
2019-01-31T00:27:18.804Z,50.73
2019-01-31T00:30:06.202Z,50.28
2019-01-31T00:33:03.592Z,43.70
2019-01-31T00:36:10.601Z,42.20
2019-01-31T00:39:25.262Z,64.00
2019-01-31T00:42:19.913Z,74.72
2019-01-31T00:45:12.470Z,64.17
2019-01-31T00:48:09.218Z,65.37
2019-01-31T00:51:01.645Z,70.97
2019-01-31T00:53:46.067Z,64.27
2019-01-31T00:56:43.461Z,74.95
2019-01-31T01:00:00.740Z,94.13
2019-01-31T01:03:18.784Z,98.50
2019-01-31T01:06:15.824Z,96.67
2019-01-31T01:09:39.934Z,102.10
2019-01-31T01:12:53.842Z,100.63
2019-01-31T01:15:54.775Z,100.23
2019-01-31T01:18:59.568Z,109.57
2019-01-31T01:21:57.334Z,147.43
2019-01-31T01:25:14.791Z,100.80
2019-01-31T01:28:33.615Z,78.17
2019-01-31T01:31:29.402Z,68.77
2019-01-31T01:34:24.532Z,74.47
2019-01-31T01:37:26.636Z,65.87
2019-01-31T01:40:43.787Z,57.20
2019-01-31T01:43:26.848Z,58.77
2019-01-31T01:46:40.229Z,83.83
2019-01-31T01:49:41.290Z,114.87
2019-01-31T01:52:27.006Z,76.57
2019-01-31T01:55:18.198Z,84.00
2019-01-31T01:58:25.952Z,80.23
2019-01-31T02:01:37.639Z,110.50
2019-01-31T02:04:13.764Z,178.97
2019-01-31T02:07:34.057Z,165.00
2019-01-31T02:10:56.482Z,81.03
2019-01-31T02:14:06.598Z,98.90
2019-01-31T02:17:02.964Z,97.23
2019-01-31T02:20:10.315Z,88.90
2019-01-31T02:23:12.144Z,120.73
2019-01-31T02:26:15.920Z,102.77
2019-01-31T02:29:30.676Z,95.00
2019-01-31T02:32:15.741Z,85.33
2019-01-31T02:35:23.076Z,77.17
2019-01-31T02:38:49.677Z,78.80
2019-01-31T02:41:51.047Z,81.67
2019-01-31T02:44:56.355Z,140.00
2019-01-31T02:48:08.705Z,152.93
2019-01-31T02:50:58.469Z,128.80
2019-01-31T02:54:23.531Z,111.67
2019-01-31T02:57:23.737Z,118.67
2019-01-31T03:00:25.023Z,111.27
2019-01-31T03:03:23.566Z,66.47
2019-01-31T03:06:16.254Z,133.20
2019-01-31T03:09:05.732Z,115.67
2019-01-31T03:11:57.926Z,120.80
2019-01-31T03:14:33.575Z,110.90
2019-01-31T03:17:45.270Z,95.17
2019-01-31T03:20:46.753Z,91.10
2019-01-31T03:23:49.328Z,85.70
2019-01-31T03:26:54.957Z,95.93
2019-01-31T03:30:02.755Z,94.07
2019-01-31T03:32:57.891Z,101.07
2019-01-31T03:36:07.496Z,124.63
2019-01-31T03:38:49.997Z,61.37
2019-01-31T03:42:07.534Z,71.07
2019-01-31T03:45:04.253Z,44.80
2019-01-31T03:48:18.399Z,51.53
2019-01-31T03:51:16.518Z,74.13
2019-01-31T03:54:30.960Z,75.63
2019-01-31T03:57:34.357Z,79.30
2019-01-31T04:00:24.644Z,107.43
2019-01-31T04:03:22.675Z,114.87
2019-01-31T04:06:23.971Z,108.20
2019-01-31T04:08:54.610Z,122.57
2019-01-31T04:11:25.081Z,78.43
2019-01-31T04:13:55.526Z,77.37
2019-01-31T04:16:25.996Z,123.83
2019-01-31T04:18:56.492Z,117.70
2019-01-31T04:21:26.947Z,101.53
2019-01-31T04:23:57.654Z,114.47
2019-01-31T04:26:29.130Z,132.70
2019-01-31T04:28:59.615Z,140.03
2019-01-31T04:31:30.101Z,145.40
2019-01-31T04:34:00.560Z,135.90
2019-01-31T04:36:31.026Z,138.57
2019-01-31T04:39:01.553Z,159.07
2019-01-31T04:41:33.120Z,127.10
2019-01-31T04:44:04.658Z,92.77
2019-01-31T04:46:35.093Z,137.40
2019-01-31T04:49:06.111Z,108.80
2019-01-31T04:51:36.559Z,122.90
2019-01-31T04:54:07.024Z,121.87
2019-01-31T04:56:37.513Z,135.93
2019-01-31T04:59:07.990Z,133.63
2019-01-31T05:01:38.463Z,120.40
2019-01-31T05:04:08.988Z,118.80
2019-01-31T05:06:39.511Z,111.70
2019-01-31T05:09:10.042Z,102.47
2019-01-31T05:11:42.196Z,82.03
2019-01-31T05:14:12.789Z,78.10
2019-01-31T05:16:43.553Z,94.87
2019-01-31T05:19:14.049Z,117.13
2019-01-31T05:21:44.769Z,87.90
2019-01-31T05:24:15.331Z,78.63
2019-01-31T05:26:45.800Z,132.90
2019-01-31T05:29:16.280Z,128.83
2019-01-31T05:31:46.725Z,138.47
2019-01-31T05:34:17.178Z,122.67
2019-01-31T05:36:47.631Z,121.63
2019-01-31T05:39:18.089Z,105.83
2019-01-31T05:41:48.539Z,143.27
2019-01-31T05:44:19.021Z,157.10
2019-01-31T05:46:49.393Z,195.87
2019-01-31T05:49:19.834Z,197.27
2019-01-31T05:51:50.318Z,172.23
2019-01-31T05:54:20.795Z,185.43
2019-01-31T05:56:51.236Z,141.07
2019-01-31T05:59:21.613Z,158.50
2019-01-31T06:01:52.055Z,160.27
2019-01-31T06:04:22.736Z,153.50
2019-01-31T06:06:53.206Z,135.77
2019-01-31T06:09:23.702Z,145.00
2019-01-31T06:11:54.456Z,122.80
2019-01-31T06:14:24.899Z,156.70
2019-01-31T06:16:55.353Z,117.80
2019-01-31T06:19:25.783Z,85.20
2019-01-31T06:21:56.273Z,157.87
2019-01-31T06:24:26.773Z,112.40
2019-01-31T06:26:57.243Z,114.63
2019-01-31T06:29:27.689Z,210.47
2019-01-31T06:31:58.154Z,139.00
2019-01-31T06:34:28.671Z,183.07
2019-01-31T06:36:59.137Z,194.30
2019-01-31T06:39:29.649Z,208.37
2019-01-31T06:42:00.166Z,303.83
2019-01-31T06:44:30.684Z,316.63
2019-01-31T06:47:01.185Z,221.10
2019-01-31T06:49:31.676Z,279.90
2019-01-31T06:52:02.138Z,254.73
2019-01-31T06:54:32.600Z,249.50
2019-01-31T06:57:03.140Z,157.53
2019-01-31T06:59:33.619Z,196.27
2019-01-31T07:02:04.188Z,158.73
2019-01-31T07:04:34.662Z,172.57
2019-01-31T07:07:05.157Z,117.80
2019-01-31T07:09:35.648Z,161.90
2019-01-31T07:12:06.320Z,128.43
2019-01-31T07:14:36.798Z,88.87
2019-01-31T07:17:07.281Z,113.00
2019-01-31T07:19:37.759Z,117.93
2019-01-31T07:22:08.278Z,135.90
2019-01-31T07:24:38.752Z,104.27
2019-01-31T07:27:09.252Z,84.23
2019-01-31T07:29:39.748Z,96.30
2019-01-31T07:32:10.301Z,88.63
2019-01-31T07:34:41.017Z,79.80
2019-01-31T07:37:11.474Z,96.57
2019-01-31T07:39:41.987Z,65.13
2019-01-31T07:42:12.484Z,66.33
2019-01-31T07:44:42.979Z,83.70
2019-01-31T07:47:14.083Z,74.37
2019-01-31T07:49:44.577Z,70.87
2019-01-31T07:52:15.055Z,81.30
2019-01-31T07:54:45.554Z,79.57
2019-01-31T07:57:16.654Z,62.08
2019-01-31T07:59:47.161Z,61.70
2019-01-31T08:02:18.262Z,83.33
2019-01-31T08:04:49.303Z,53.90
2019-01-31T08:07:20.392Z,66.57
2019-01-31T08:09:51.483Z,49.42
2019-01-31T08:12:21.941Z,59.90
2019-01-31T08:14:53.003Z,131.10
2019-01-31T08:17:24.074Z,243.73
2019-01-31T08:19:55.130Z,140.62
2019-01-31T08:22:26.196Z,53.05
2019-01-31T08:24:57.348Z,73.10
2019-01-31T08:27:28.456Z,53.60
2019-01-31T08:29:59.547Z,65.62
2019-01-31T08:32:30.013Z,61.10
2019-01-31T08:35:01.204Z,56.63
2019-01-31T08:37:32.297Z,86.60
2019-01-31T08:40:03.500Z,70.22
2019-01-31T08:42:34.002Z,55.17
2019-01-31T08:45:05.172Z,50.90
2019-01-31T08:47:36.223Z,62.03
2019-01-31T08:50:08.583Z,64.15
2019-01-31T08:52:41.653Z,42.30
2019-01-31T08:55:12.382Z,46.53
2019-01-31T08:57:43.449Z,49.50
2019-01-31T09:00:21.015Z,49.48
2019-01-31T09:02:52.052Z,54.50
2019-01-31T09:05:23.121Z,53.15
2019-01-31T09:07:54.172Z,49.33
2019-01-31T09:10:30.522Z,41.45
2019-01-31T09:13:04.555Z,42.95
2019-01-31T09:15:35.630Z,36.03
2019-01-31T09:18:07.342Z,38.08
2019-01-31T09:20:45.110Z,38.85
2019-01-31T09:23:24.093Z,41.42
2019-01-31T09:26:37.803Z,42.43
2019-01-31T09:29:26.874Z,42.25
2019-01-31T09:32:32.416Z,42.53
2019-01-31T09:35:41.688Z,53.78
2019-01-31T09:38:52.499Z,51.65
2019-01-31T09:41:42.147Z,47.60
2019-01-31T09:45:15.316Z,43.25
2019-01-31T09:48:37.434Z,45.17
2019-01-31T09:51:20.418Z,46.98
2019-01-31T09:54:22.370Z,49.40
2019-01-31T09:57:11.351Z,46.90
2019-01-31T10:00:33.092Z,47.13
2019-01-31T10:03:13.404Z,46.80
2019-01-31T10:06:12.681Z,65.62
2019-01-31T10:09:36.561Z,80.75
2019-01-31T10:12:57.547Z,64.53
2019-01-31T10:16:09.815Z,42.17
2019-01-31T10:19:36.994Z,41.98
2019-01-31T10:22:43.988Z,44.23
2019-01-31T10:25:49.434Z,74.17
2019-01-31T10:29:06.813Z,62.55
2019-01-31T10:32:31.220Z,50.12
2019-01-31T10:36:01.306Z,51.95
2019-01-31T10:38:49.027Z,62.53
2019-01-31T10:41:56.708Z,60.52
2019-01-31T10:45:03.726Z,55.63
2019-01-31T10:48:12.472Z,45.52
2019-01-31T10:51:32.280Z,54.50
2019-01-31T10:54:35.491Z,62.95
2019-01-31T10:57:38.521Z,47.95
2019-01-31T11:00:45.420Z,49.50
2019-01-31T11:03:58.672Z,49.05
2019-01-31T11:06:57.335Z,45.35
2019-01-31T11:10:14.168Z,40.03
2019-01-31T11:13:40.204Z,39.05
2019-01-31T11:17:07.320Z,42.10
2019-01-31T11:20:15.389Z,44.93
2019-01-31T11:23:22.968Z,40.78
2019-01-31T11:26:47.529Z,44.42
2019-01-31T11:29:43.403Z,42.03
2019-01-31T11:32:52.955Z,43.40
2019-01-31T11:36:15.596Z,45.88
2019-01-31T11:39:21.564Z,41.95
2019-01-31T11:42:31.827Z,46.13
2019-01-31T11:45:43.789Z,48.08
2019-01-31T11:48:48.229Z,47.40
2019-01-31T11:51:53.025Z,49.53
2019-01-31T11:54:55.155Z,52.65
2019-01-31T11:58:02.245Z,48.87
2019-01-31T12:00:33.947Z,46.10
2019-01-31T12:03:05.060Z,49.33
2019-01-31T12:05:36.723Z,47.55
2019-01-31T12:08:07.837Z,46.65
2019-01-31T12:10:38.901Z,45.95
2019-01-31T12:13:09.871Z,45.60
2019-01-31T12:15:40.954Z,50.78
2019-01-31T12:18:12.082Z,46.30
2019-01-31T12:20:43.155Z,48.13
2019-01-31T12:23:14.289Z,49.48
2019-01-31T12:25:45.313Z,46.15
2019-01-31T12:28:16.340Z,51.50
2019-01-31T12:30:47.381Z,52.93
2019-01-31T12:33:18.483Z,59.42
2019-01-31T12:35:49.518Z,54.73
2019-01-31T12:38:20.803Z,62.17
2019-01-31T12:40:51.843Z,59.40
2019-01-31T12:43:34.303Z,66.70
2019-01-31T12:45:55.652Z,67.58
2019-01-31T12:48:26.808Z,69.03
2019-01-31T12:50:57.840Z,61.95
2019-01-31T12:53:28.830Z,63.65
2019-01-31T12:55:59.933Z,61.70
2019-01-31T12:58:33.606Z,59.23
2019-01-31T13:01:05.161Z,58.13
2019-01-31T13:03:36.260Z,59.18
2019-01-31T13:06:07.304Z,60.33
2019-01-31T13:08:38.349Z,59.05
2019-01-31T13:11:09.393Z,97.62
2019-01-31T13:13:46.099Z,77.45
2019-01-31T13:16:13.199Z,68.30
2019-01-31T13:18:44.261Z,65.87
2019-01-31T13:21:15.308Z,65.70
2019-01-31T13:23:46.368Z,62.20
2019-01-31T13:26:17.336Z,62.90
2019-01-31T13:28:48.393Z,61.10
2019-01-31T13:31:19.450Z,61.85
2019-01-31T13:33:50.505Z,60.43
2019-01-31T13:36:22.836Z,60.23
2019-01-31T13:38:53.899Z,60.85
2019-01-31T13:41:24.972Z,63.78
2019-01-31T13:43:57.727Z,62.85
2019-01-31T13:46:28.795Z,60.35
2019-01-31T13:48:59.863Z,61.53
2019-01-31T13:51:30.927Z,67.25
2019-01-31T13:54:01.980Z,67.58
2019-01-31T13:56:44.919Z,62.38
2019-01-31T13:59:05.999Z,62.08
2019-01-31T14:01:37.052Z,59.90
2019-01-31T14:04:08.089Z,59.00
2019-01-31T14:06:39.137Z,60.17
2019-01-31T14:09:10.520Z,67.20
2019-01-31T14:11:41.573Z,68.85
2019-01-31T14:14:12.639Z,68.92
2019-01-31T14:16:47.799Z,67.60
2019-01-31T14:19:16.427Z,63.63
2019-01-31T14:21:47.628Z,62.33
2019-01-31T14:24:18.756Z,54.65
2019-01-31T14:26:49.803Z,58.70
2019-01-31T14:29:21.913Z,57.20
2019-01-31T14:31:52.962Z,56.98
2019-01-31T14:34:23.978Z,55.67
2019-01-31T14:36:55.023Z,61.25
2019-01-31T14:39:26.114Z,57.58
2019-01-31T14:41:57.156Z,53.10
2019-01-31T14:44:28.213Z,53.20
2019-01-31T14:46:59.280Z,52.25
2019-01-31T14:49:30.289Z,51.02
2019-01-31T14:52:01.329Z,54.08
2019-01-31T14:54:32.388Z,50.20
2019-01-31T14:57:04.449Z,48.30
2019-01-31T14:59:35.522Z,49.00
2019-01-31T15:02:06.673Z,53.38
2019-01-31T15:04:37.721Z,58.52
2019-01-31T15:07:08.786Z,56.65
2019-01-31T15:09:39.867Z,57.50
2019-01-31T15:12:10.907Z,56.18
2019-01-31T15:14:42.007Z,55.17
2019-01-31T15:17:13.086Z,58.23
2019-01-31T15:19:44.224Z,63.52
2019-01-31T15:22:15.217Z,79.70
2019-01-31T15:24:46.517Z,71.22
2019-01-31T15:27:17.634Z,70.52
2019-01-31T15:29:48.674Z,65.47
2019-01-31T15:32:20.073Z,58.55
2019-01-31T15:34:51.150Z,48.15
2019-01-31T15:37:22.222Z,49.53
2019-01-31T15:39:53.262Z,53.85
2019-01-31T15:42:24.356Z,55.00
2019-01-31T15:44:55.405Z,56.98
2019-01-31T15:47:26.454Z,63.92
2019-01-31T15:49:57.552Z,68.92
2019-01-31T15:52:28.641Z,81.32
2019-01-31T15:54:59.730Z,69.07
2019-01-31T15:57:30.895Z,66.42
2019-01-31T16:00:01.969Z,75.37
2019-01-31T16:02:33.070Z,88.95
2019-01-31T16:05:04.153Z,84.17
2019-01-31T16:07:35.247Z,87.80
2019-01-31T16:10:06.337Z,77.92
2019-01-31T16:12:37.399Z,76.22
2019-01-31T16:15:09.569Z,79.90
2019-01-31T16:17:40.673Z,80.50
2019-01-31T16:20:12.983Z,84.52
2019-01-31T16:22:44.107Z,86.22
2019-01-31T16:25:16.454Z,89.60
2019-01-31T16:27:47.505Z,86.53
2019-01-31T16:30:21.101Z,85.50
2019-01-31T16:32:52.203Z,81.82
2019-01-31T16:35:24.310Z,81.78
2019-01-31T16:37:55.519Z,79.32
2019-01-31T16:40:26.640Z,86.60
2019-01-31T16:42:57.700Z,102.25
2019-01-31T16:45:28.799Z,104.53
2019-01-31T16:47:59.880Z,97.12
2019-01-31T16:50:30.957Z,93.33
2019-01-31T16:53:02.070Z,90.00
2019-01-31T16:55:33.115Z,79.30
2019-01-31T16:58:04.306Z,74.47
2019-01-31T17:00:35.457Z,73.00
2019-01-31T17:03:07.318Z,67.92
2019-01-31T17:05:38.398Z,66.65
2019-01-31T17:08:10.474Z,65.85
2019-01-31T17:10:43.280Z,64.95
2019-01-31T17:13:14.379Z,66.33
2019-01-31T17:15:45.469Z,71.10
2019-01-31T17:18:16.585Z,67.03
2019-01-31T17:20:47.737Z,64.97
2019-01-31T17:23:18.884Z,66.20
2019-01-31T17:25:49.988Z,64.77
2019-01-31T17:28:21.072Z,64.35
2019-01-31T17:30:51.554Z,65.73
2019-01-31T17:33:22.783Z,63.48
2019-01-31T17:35:53.885Z,61.40
2019-01-31T17:38:25.997Z,61.33
2019-01-31T17:40:57.117Z,60.12
2019-01-31T17:43:29.728Z,61.50
2019-01-31T17:46:01.146Z,58.15
2019-01-31T17:48:35.316Z,55.40
2019-01-31T17:51:05.296Z,50.83
2019-01-31T17:53:36.433Z,53.55
2019-01-31T17:56:07.545Z,49.73
2019-01-31T17:58:38.113Z,48.37
2019-01-31T18:01:09.178Z,48.08
2019-01-31T18:03:40.315Z,49.38
2019-01-31T18:06:11.389Z,51.20
2019-01-31T18:08:42.506Z,45.30
2019-01-31T18:11:13.684Z,38.48
2019-01-31T18:13:44.900Z,40.05
2019-01-31T18:16:17.506Z,34.10
2019-01-31T18:18:49.091Z,27.02
2019-01-31T18:21:20.165Z,18.32
2019-01-31T18:23:51.298Z,12.47
2019-01-31T18:26:22.427Z,16.30
2019-01-31T18:28:52.956Z,13.93
2019-01-31T18:31:24.449Z,8.75
2019-01-31T18:33:57.085Z,6.85
2019-01-31T18:36:27.605Z,3.90
2019-01-31T18:38:58.733Z,3.80
2019-01-31T18:41:29.198Z,3.20
2019-01-31T18:43:59.728Z,4.07
2019-01-31T18:46:30.239Z,3.30
2019-01-31T18:49:00.828Z,2.90
2019-01-31T18:51:31.322Z,4.20
2019-01-31T18:54:01.821Z,3.47
2019-01-31T18:56:32.311Z,2.73
2019-01-31T18:59:03.399Z,3.00
2019-01-31T19:01:33.994Z,3.23
2019-01-31T19:04:05.068Z,3.50
2019-01-31T19:06:36.224Z,2.40
2019-01-31T19:09:06.731Z,3.17
2019-01-31T19:11:37.259Z,3.00
2019-01-31T19:14:07.754Z,3.07
2019-01-31T19:16:38.842Z,2.80
2019-01-31T19:19:09.928Z,2.67
2019-01-31T19:21:40.436Z,3.07
2019-01-31T19:24:10.920Z,4.03
2019-01-31T19:26:42.002Z,4.10
2019-01-31T19:29:12.780Z,4.43
2019-01-31T19:31:43.942Z,4.50
2019-01-31T19:34:15.235Z,5.83
2019-01-31T19:36:45.822Z,3.83
2019-01-31T19:39:18.920Z,6.12
2019-01-31T19:41:49.454Z,4.17
2019-01-31T19:44:19.927Z,4.63
2019-01-31T19:46:50.418Z,6.90
2019-01-31T19:49:21.012Z,7.50
2019-01-31T19:51:51.578Z,6.53
2019-01-31T19:54:24.160Z,3.93
2019-01-31T19:56:54.652Z,5.30
2019-01-31T19:59:25.951Z,6.23
2019-01-31T20:01:56.437Z,7.70
2019-01-31T20:04:27.098Z,5.60
2019-01-31T20:06:57.561Z,6.33
2019-01-31T20:09:29.228Z,6.10
2019-01-31T20:11:59.734Z,5.30
2019-01-31T20:14:30.214Z,12.23
2019-01-31T20:17:01.358Z,7.20
2019-01-31T20:19:32.886Z,9.37
2019-01-31T20:22:03.744Z,6.20
2019-01-31T20:24:34.208Z,6.80
2019-01-31T20:27:04.674Z,6.73
2019-01-31T20:29:35.153Z,6.50
2019-01-31T20:32:06.136Z,5.20
2019-01-31T20:34:37.984Z,8.20
2019-01-31T20:37:10.121Z,8.10
2019-01-31T20:39:40.641Z,7.73
2019-01-31T20:42:11.707Z,10.55
2019-01-31T20:44:42.779Z,4.90
2019-01-31T20:47:15.868Z,5.12
2019-01-31T20:49:46.599Z,5.10
2019-01-31T20:52:17.653Z,5.10
2019-01-31T20:54:48.112Z,4.83
2019-01-31T20:57:18.540Z,7.27
2019-01-31T20:59:49.114Z,7.40
2019-01-31T21:02:21.887Z,9.88
2019-01-31T21:04:52.459Z,12.57
2019-01-31T21:07:23.020Z,11.03
2019-01-31T21:09:53.543Z,7.80
2019-01-31T21:12:24.286Z,5.43
2019-01-31T21:14:54.738Z,4.90
2019-01-31T21:17:25.517Z,5.67
2019-01-31T21:19:55.971Z,4.83
2019-01-31T21:22:26.561Z,4.40
2019-01-31T21:24:56.996Z,4.10
2019-01-31T21:28:18.931Z,4.63
2019-01-31T21:30:45.205Z,4.63
2019-01-31T21:33:11.278Z,3.77
2019-01-31T21:35:37.551Z,3.77
2019-01-31T21:38:03.839Z,4.23
2019-01-31T21:40:33.872Z,4.23
2019-01-31T21:43:00.153Z,3.70
2019-01-31T21:45:26.326Z,4.47
2019-01-31T21:47:52.625Z,3.80
2019-01-31T21:50:21.812Z,5.27
2019-01-31T21:52:48.099Z,4.30
2019-01-31T21:55:14.593Z,4.00
2019-01-31T21:57:40.667Z,4.33
2019-01-31T22:00:32.955Z,4.10
2019-01-31T22:02:59.251Z,3.80
2019-01-31T22:05:25.519Z,3.73
2019-01-31T22:07:51.701Z,4.03
2019-01-31T22:10:18.728Z,3.73
2019-01-31T22:12:44.971Z,3.80
2019-01-31T22:15:20.351Z,7.13
2019-01-31T22:17:46.530Z,4.13
2019-01-31T22:20:12.778Z,3.87
2019-01-31T22:22:39.013Z,4.03
2019-01-31T22:25:08.598Z,3.60
2019-01-31T22:27:34.766Z,4.07
2019-01-31T22:30:01.271Z,3.70
2019-01-31T22:32:27.541Z,4.17
2019-01-31T22:34:53.828Z,4.40
2019-01-31T22:37:19.992Z,5.30
2019-01-31T22:39:46.175Z,4.07
2019-01-31T22:42:12.343Z,4.30
2019-01-31T22:44:38.608Z,3.53
2019-01-31T22:47:04.760Z,3.97
2019-01-31T22:49:31.035Z,4.43
2019-01-31T22:51:57.232Z,4.77
2019-01-31T22:54:23.479Z,5.03
2019-01-31T22:56:49.622Z,4.80
2019-01-31T22:59:15.718Z,4.87
2019-01-31T23:04:33.516Z,4.90
2019-01-31T23:06:59.566Z,5.80
2019-01-31T23:09:25.633Z,5.80
2019-01-31T23:11:51.797Z,5.73
2019-01-31T23:14:17.970Z,5.53
2019-01-31T23:16:44.219Z,5.50
2019-01-31T23:19:10.372Z,5.70
2019-01-31T23:21:36.444Z,5.37
2019-01-31T23:24:02.931Z,5.47
2019-01-31T23:26:28.980Z,5.77
2019-01-31T23:28:55.165Z,5.93
2019-01-31T23:31:21.310Z,6.53
2019-01-31T23:33:47.379Z,6.00
2019-01-31T23:36:13.559Z,6.00
2019-01-31T23:38:39.505Z,5.57
2019-01-31T23:41:05.565Z,6.10
2019-01-31T23:43:31.516Z,6.07
2019-01-31T23:45:57.684Z,6.07
2019-01-31T23:48:23.765Z,6.67
2019-01-31T23:50:49.814Z,6.87
2019-01-31T23:53:15.987Z,6.47
2019-01-31T23:55:42.292Z,6.03
2019-01-31T23:58:08.438Z,6.60
